createdAt,value
2019-03-29T00:00:46.030Z,35.50
2019-03-29T00:03:18.283Z,36.07
2019-03-29T00:05:49.867Z,36.87
2019-03-29T00:08:21.296Z,38.77
2019-03-29T00:10:52.404Z,39.83
2019-03-29T00:13:23.517Z,39.17
2019-03-29T00:15:54.793Z,41.77
2019-03-29T00:18:26.168Z,42.77
2019-03-29T00:20:59.468Z,40.70
2019-03-29T00:23:31.173Z,43.07
2019-03-29T00:26:02.328Z,46.37
2019-03-29T00:28:33.259Z,48.73
2019-03-29T00:31:04.502Z,46.20
2019-03-29T00:33:35.753Z,44.87
2019-03-29T00:36:06.938Z,46.20
2019-03-29T00:38:38.021Z,46.20
2019-03-29T00:41:09.052Z,48.57
2019-03-29T00:43:40.224Z,44.70
2019-03-29T00:46:11.356Z,51.73
2019-03-29T00:48:43.001Z,46.87
2019-03-29T00:51:15.516Z,43.63
2019-03-29T00:53:48.334Z,43.53
2019-03-29T00:56:19.510Z,44.63
2019-03-29T00:58:51.000Z,42.27
2019-03-29T01:01:22.424Z,46.83
2019-03-29T01:03:53.522Z,45.27
2019-03-29T01:06:24.536Z,48.73
2019-03-29T01:08:56.185Z,46.20
2019-03-29T01:11:27.281Z,45.40
2019-03-29T01:13:58.385Z,45.93
2019-03-29T01:16:29.488Z,44.03
2019-03-29T01:19:00.705Z,47.90
2019-03-29T01:21:31.800Z,48.17
2019-03-29T01:24:02.940Z,47.57
2019-03-29T01:26:34.325Z,47.63
2019-03-29T01:29:05.440Z,46.87
2019-03-29T01:31:36.820Z,46.97
2019-03-29T01:34:08.272Z,47.17
2019-03-29T01:36:39.322Z,49.07
2019-03-29T01:39:10.391Z,48.17
2019-03-29T01:41:41.490Z,47.53
2019-03-29T01:44:12.737Z,46.50
2019-03-29T01:46:44.037Z,44.20
2019-03-29T01:49:16.006Z,44.40
2019-03-29T01:51:47.588Z,43.83
2019-03-29T01:54:20.407Z,44.00
2019-03-29T01:56:51.666Z,47.57
2019-03-29T01:59:22.785Z,47.53
2019-03-29T02:01:54.359Z,49.27
2019-03-29T02:04:28.524Z,48.50
2019-03-29T02:07:00.895Z,46.23
2019-03-29T02:09:32.205Z,46.10
2019-03-29T02:12:03.256Z,51.83
2019-03-29T02:14:34.307Z,49.10
2019-03-29T02:17:05.525Z,46.70
2019-03-29T02:19:36.819Z,48.57
2019-03-29T02:22:08.960Z,48.57
2019-03-29T02:24:40.919Z,47.97
2019-03-29T02:27:13.353Z,55.90
2019-03-29T02:29:44.459Z,58.70
2019-03-29T02:32:15.986Z,54.67
2019-03-29T02:34:47.081Z,58.60
2019-03-29T02:37:19.743Z,54.47
2019-03-29T02:39:50.773Z,60.80
2019-03-29T02:42:21.926Z,56.43
2019-03-29T02:44:53.150Z,50.83
2019-03-29T02:47:24.196Z,55.77
2019-03-29T02:49:55.409Z,54.43
2019-03-29T02:52:26.566Z,54.27
2019-03-29T02:54:59.207Z,57.63
2019-03-29T02:57:30.279Z,60.53
2019-03-29T03:00:01.388Z,58.60
2019-03-29T03:02:35.555Z,59.03
2019-03-29T03:05:07.443Z,56.90
2019-03-29T03:07:38.954Z,59.37
2019-03-29T03:10:12.112Z,59.30
2019-03-29T03:12:43.834Z,59.47
2019-03-29T03:15:16.218Z,56.23
2019-03-29T03:17:47.390Z,61.17
2019-03-29T03:20:18.841Z,58.37
2019-03-29T03:22:49.974Z,59.10
2019-03-29T03:25:24.867Z,57.33
2019-03-29T03:27:57.043Z,53.00
2019-03-29T03:30:29.650Z,55.43
2019-03-29T03:33:01.073Z,53.00
2019-03-29T03:35:32.235Z,57.23
2019-03-29T03:38:03.971Z,52.63
2019-03-29T03:40:35.427Z,53.63
2019-03-29T03:43:06.539Z,55.87
2019-03-29T03:45:37.872Z,52.00
2019-03-29T03:48:08.896Z,54.80
2019-03-29T03:50:42.962Z,51.53
2019-03-29T03:53:14.541Z,52.60
2019-03-29T03:55:46.156Z,52.50
2019-03-29T03:58:19.869Z,50.80
2019-03-29T04:00:58.635Z,50.13
2019-03-29T04:03:29.893Z,55.27
2019-03-29T04:06:01.084Z,53.80
2019-03-29T04:08:32.413Z,52.27
2019-03-29T04:11:03.456Z,52.43
2019-03-29T04:13:34.639Z,54.93
2019-03-29T04:16:06.097Z,53.60
2019-03-29T04:18:37.066Z,52.33
2019-03-29T04:21:07.955Z,48.97
2019-03-29T04:23:39.015Z,54.03
2019-03-29T04:26:10.005Z,53.93
2019-03-29T04:28:41.133Z,52.80
2019-03-29T04:31:12.205Z,52.13
2019-03-29T04:33:43.576Z,50.60
2019-03-29T04:36:15.010Z,53.33
2019-03-29T04:38:45.998Z,55.20
2019-03-29T04:41:17.038Z,52.70
2019-03-29T04:43:48.318Z,52.07
2019-03-29T04:46:20.178Z,50.53
2019-03-29T04:48:52.715Z,53.37
2019-03-29T04:51:23.938Z,54.03
2019-03-29T04:53:55.208Z,50.70
2019-03-29T04:56:26.870Z,49.43
2019-03-29T04:58:58.027Z,50.97
2019-03-29T05:01:29.125Z,50.23
2019-03-29T05:04:00.209Z,50.63
2019-03-29T05:06:31.346Z,51.97
2019-03-29T05:09:02.354Z,49.23
2019-03-29T05:11:33.824Z,49.20
2019-03-29T05:14:06.236Z,49.87
2019-03-29T05:16:37.314Z,51.63
2019-03-29T05:19:09.842Z,56.83
2019-03-29T05:21:41.062Z,49.00
2019-03-29T05:24:12.294Z,47.73
2019-03-29T05:26:43.483Z,46.50
2019-03-29T05:29:14.990Z,45.10
2019-03-29T05:31:46.128Z,45.57
2019-03-29T05:34:17.348Z,45.07
2019-03-29T05:36:48.375Z,43.73
2019-03-29T05:39:20.895Z,45.43
2019-03-29T05:41:52.668Z,45.80
2019-03-29T05:44:24.232Z,43.27
2019-03-29T05:46:56.504Z,40.40
2019-03-29T05:49:27.886Z,40.87
2019-03-29T05:51:59.038Z,41.73
2019-03-29T05:54:31.843Z,41.83
2019-03-29T05:57:03.171Z,39.63
2019-03-29T05:59:35.036Z,39.10
2019-03-29T06:02:06.350Z,38.63
2019-03-29T06:04:37.548Z,38.73
2019-03-29T06:07:08.744Z,36.03
2019-03-29T06:09:39.723Z,35.77
2019-03-29T06:12:10.813Z,36.40
2019-03-29T06:14:42.010Z,36.77
2019-03-29T06:17:14.899Z,33.70
2019-03-29T06:19:46.088Z,32.23
2019-03-29T06:22:17.253Z,33.00
2019-03-29T06:24:48.479Z,32.43
2019-03-29T06:27:19.664Z,31.87
2019-03-29T06:29:50.794Z,31.87
2019-03-29T06:32:21.854Z,27.87
2019-03-29T06:34:52.970Z,28.67
2019-03-29T06:37:24.799Z,29.63
2019-03-29T06:39:57.155Z,31.77
2019-03-29T06:42:28.403Z,27.43
2019-03-29T06:44:59.504Z,26.33
2019-03-29T06:47:30.681Z,24.90
2019-03-29T06:50:01.871Z,24.97
2019-03-29T06:52:33.260Z,53.30
2019-03-29T06:55:04.449Z,24.30
2019-03-29T06:57:35.896Z,22.00
2019-03-29T07:00:07.556Z,23.20
2019-03-29T07:02:38.608Z,22.80
2019-03-29T07:05:09.708Z,19.10
2019-03-29T07:07:44.441Z,21.13
2019-03-29T07:10:14.475Z,17.77
2019-03-29T07:12:45.458Z,16.80
2019-03-29T07:15:16.698Z,17.37
2019-03-29T07:17:47.776Z,17.87
2019-03-29T07:20:18.880Z,17.70
2019-03-29T07:22:49.960Z,17.60
2019-03-29T07:25:21.719Z,16.87
2019-03-29T07:27:54.762Z,16.93
2019-03-29T07:30:26.024Z,16.70
2019-03-29T07:32:57.139Z,16.80
2019-03-29T07:35:28.762Z,14.50
2019-03-29T07:37:59.996Z,16.70
2019-03-29T07:40:30.976Z,14.83
2019-03-29T07:43:02.324Z,15.23
2019-03-29T07:45:36.619Z,14.93
2019-03-29T07:48:09.390Z,16.33
2019-03-29T07:50:40.650Z,15.90
2019-03-29T07:53:11.707Z,13.70
2019-03-29T07:55:42.792Z,13.13
2019-03-29T07:58:14.033Z,13.03
2019-03-29T08:00:45.664Z,14.37
2019-03-29T08:03:16.957Z,13.00
2019-03-29T08:05:48.092Z,11.43
2019-03-29T08:08:24.852Z,12.10
2019-03-29T08:10:53.757Z,12.07
2019-03-29T08:13:24.778Z,14.80
2019-03-29T08:15:56.005Z,12.67
2019-03-29T08:18:27.150Z,13.03
2019-03-29T08:20:58.638Z,14.00
2019-03-29T08:23:29.702Z,13.23
2019-03-29T08:26:00.740Z,12.83
2019-03-29T08:28:32.040Z,12.83
2019-03-29T08:31:03.346Z,14.20
2019-03-29T08:33:34.431Z,13.43
2019-03-29T08:36:05.517Z,13.30
2019-03-29T08:38:36.938Z,12.07
2019-03-29T08:41:08.353Z,13.20
2019-03-29T08:43:39.620Z,13.37
2019-03-29T08:46:12.295Z,12.13
2019-03-29T08:48:43.376Z,12.93
2019-03-29T08:51:15.076Z,13.00
2019-03-29T08:53:46.505Z,12.17
2019-03-29T08:56:18.083Z,11.53
2019-03-29T08:58:49.076Z,12.23
2019-03-29T09:01:21.198Z,12.20
2019-03-29T09:04:04.550Z,11.63
2019-03-29T09:06:25.983Z,12.50
2019-03-29T09:08:58.450Z,12.73
2019-03-29T09:11:32.106Z,12.50
2019-03-29T09:14:05.526Z,10.97
2019-03-29T09:16:37.182Z,11.77
2019-03-29T09:19:09.787Z,10.67
2019-03-29T09:21:40.889Z,11.60
2019-03-29T09:24:21.756Z,12.17
2019-03-29T09:26:45.430Z,11.73
2019-03-29T09:29:16.436Z,11.40
2019-03-29T09:31:49.089Z,15.00
2019-03-29T09:34:20.304Z,12.23
2019-03-29T09:36:51.686Z,12.90
2019-03-29T09:39:22.791Z,13.43
2019-03-29T09:41:53.855Z,13.70
2019-03-29T09:44:24.910Z,12.33
2019-03-29T09:46:56.736Z,12.17
2019-03-29T09:49:27.679Z,11.23
2019-03-29T09:51:58.847Z,12.13
2019-03-29T09:54:30.069Z,11.33
2019-03-29T09:57:01.206Z,14.80
2019-03-29T09:59:32.428Z,12.00
2019-03-29T10:02:03.643Z,12.87
2019-03-29T10:04:34.954Z,11.13
2019-03-29T10:07:06.278Z,10.90
2019-03-29T10:09:37.348Z,12.20
2019-03-29T10:12:08.550Z,11.77
2019-03-29T10:14:40.395Z,12.10
2019-03-29T10:17:11.555Z,9.33
2019-03-29T10:19:42.911Z,10.50
2019-03-29T10:22:14.292Z,10.37
2019-03-29T10:24:45.391Z,9.63
2019-03-29T10:27:19.072Z,10.00
2019-03-29T10:29:49.312Z,9.70
2019-03-29T10:32:21.578Z,11.13
2019-03-29T10:34:53.121Z,10.47
2019-03-29T10:37:24.192Z,9.77
2019-03-29T10:39:55.238Z,9.73
2019-03-29T10:42:26.396Z,10.13
2019-03-29T10:44:57.437Z,9.97
2019-03-29T10:47:42.572Z,10.07
2019-03-29T10:50:01.201Z,7.40
2019-03-29T10:52:32.429Z,10.93
2019-03-29T10:55:03.728Z,8.27
2019-03-29T10:57:34.818Z,8.87
2019-03-29T11:00:10.247Z,8.53
2019-03-29T11:02:42.455Z,9.50
2019-03-29T11:05:13.609Z,9.03
2019-03-29T11:07:44.741Z,9.00
2019-03-29T11:10:25.826Z,9.30
2019-03-29T11:13:11.328Z,9.77
2019-03-29T11:15:30.117Z,10.13
2019-03-29T11:18:01.683Z,10.03
2019-03-29T11:20:33.261Z,9.70
2019-03-29T11:23:04.454Z,9.10
2019-03-29T11:25:35.460Z,11.33
2019-03-29T11:28:08.300Z,9.33
2019-03-29T11:30:42.967Z,8.43
2019-03-29T11:33:13.521Z,9.73
2019-03-29T11:35:44.822Z,10.43
2019-03-29T11:38:15.835Z,10.10
2019-03-29T11:40:46.856Z,9.40
2019-03-29T11:43:26.684Z,11.77
2019-03-29T11:45:53.548Z,11.20
2019-03-29T11:48:24.660Z,10.30
2019-03-29T11:50:55.795Z,11.77
2019-03-29T11:53:26.803Z,9.97
2019-03-29T11:55:57.846Z,11.53
2019-03-29T11:58:29.011Z,10.23
2019-03-29T12:01:00.231Z,11.63
2019-03-29T12:03:31.353Z,10.00
2019-03-29T12:06:02.351Z,10.53
2019-03-29T12:08:33.728Z,11.07
2019-03-29T12:11:04.837Z,10.90
2019-03-29T12:13:41.330Z,9.53
2019-03-29T12:16:08.647Z,10.60
2019-03-29T12:18:39.799Z,10.30
2019-03-29T12:21:10.993Z,11.57
2019-03-29T12:23:42.062Z,9.50
2019-03-29T12:26:14.696Z,9.77
2019-03-29T12:28:47.474Z,10.03
2019-03-29T12:31:18.569Z,10.97
2019-03-29T12:33:50.303Z,11.43
2019-03-29T12:36:21.338Z,9.97
2019-03-29T12:38:52.423Z,11.23
2019-03-29T12:41:23.465Z,9.93
2019-03-29T12:44:01.018Z,11.80
2019-03-29T12:46:32.513Z,10.73
2019-03-29T12:49:04.473Z,10.13
2019-03-29T12:51:35.615Z,10.77
2019-03-29T12:54:06.845Z,11.13
2019-03-29T12:56:37.901Z,9.77
2019-03-29T12:59:08.981Z,11.00
2019-03-29T13:01:44.419Z,10.97
2019-03-29T13:04:16.620Z,9.13
2019-03-29T13:06:47.830Z,9.60
2019-03-29T13:09:18.918Z,10.03
2019-03-29T13:11:51.056Z,11.70
2019-03-29T13:14:22.155Z,9.47
2019-03-29T13:16:53.203Z,10.23
2019-03-29T13:19:24.225Z,8.97
2019-03-29T13:21:55.367Z,9.50
2019-03-29T13:24:26.395Z,8.80
2019-03-29T13:26:58.457Z,9.40
2019-03-29T13:29:29.524Z,10.13
2019-03-29T13:32:00.741Z,9.03
2019-03-29T13:34:31.751Z,8.20
2019-03-29T13:37:05.961Z,9.33
2019-03-29T13:39:37.014Z,7.47
2019-03-29T13:42:08.560Z,9.97
2019-03-29T13:44:39.787Z,8.23
2019-03-29T13:47:10.873Z,7.30
2019-03-29T13:49:42.011Z,7.37
2019-03-29T13:52:13.187Z,6.90
2019-03-29T13:54:46.046Z,7.80
2019-03-29T13:57:17.431Z,7.10
2019-03-29T13:59:48.685Z,8.30
2019-03-29T14:02:19.977Z,7.00
2019-03-29T14:04:51.007Z,7.83
2019-03-29T14:07:22.156Z,8.23
2019-03-29T14:09:53.261Z,8.00
2019-03-29T14:12:24.619Z,8.13
2019-03-29T14:14:55.757Z,8.23
2019-03-29T14:17:27.311Z,6.93
2019-03-29T14:19:58.457Z,7.63
2019-03-29T14:22:29.715Z,7.53
2019-03-29T14:25:00.772Z,7.40
2019-03-29T14:27:31.862Z,7.63
2019-03-29T14:30:04.652Z,8.53
2019-03-29T14:32:35.717Z,9.93
2019-03-29T14:35:07.523Z,10.60
2019-03-29T14:37:38.803Z,9.03
2019-03-29T14:40:10.621Z,8.07
2019-03-29T14:42:41.807Z,9.03
2019-03-29T14:45:12.989Z,8.20
2019-03-29T14:47:44.334Z,7.97
2019-03-29T14:50:15.676Z,10.13
2019-03-29T14:52:46.902Z,9.90
2019-03-29T14:55:18.247Z,8.80
2019-03-29T14:57:49.480Z,8.93
2019-03-29T15:00:54.325Z,8.87
2019-03-29T15:03:27.623Z,9.70
2019-03-29T15:06:01.745Z,9.33
2019-03-29T15:08:32.217Z,9.43
2019-03-29T15:11:04.033Z,8.23
2019-03-29T15:13:35.246Z,8.07
2019-03-29T15:16:06.373Z,9.33
2019-03-29T15:18:37.553Z,10.53
2019-03-29T15:21:10.441Z,11.20
2019-03-29T15:23:41.704Z,10.63
2019-03-29T15:26:14.943Z,11.60
2019-03-29T15:28:46.043Z,11.00
2019-03-29T15:31:17.347Z,11.87
2019-03-29T15:33:48.814Z,12.13
2019-03-29T15:36:20.231Z,13.03
2019-03-29T15:38:51.976Z,11.43
2019-03-29T15:41:23.055Z,13.60
2019-03-29T15:43:54.307Z,11.60
2019-03-29T15:46:25.547Z,10.13
2019-03-29T15:48:57.353Z,10.17
2019-03-29T15:51:28.634Z,38.93
2019-03-29T15:54:00.151Z,10.90
2019-03-29T15:56:31.215Z,12.07
2019-03-29T15:59:02.816Z,15.00
2019-03-29T16:01:38.578Z,16.47
2019-03-29T16:04:08.451Z,19.07
2019-03-29T16:06:39.641Z,14.90
2019-03-29T16:09:10.569Z,13.43
2019-03-29T16:11:41.678Z,11.57
2019-03-29T16:14:13.085Z,11.37
2019-03-29T16:16:46.073Z,11.70
2019-03-29T16:19:17.658Z,11.67
2019-03-29T16:21:48.859Z,14.13
2019-03-29T16:24:22.917Z,11.80
2019-03-29T16:26:54.766Z,10.90
2019-03-29T16:29:26.147Z,11.50
2019-03-29T16:31:57.619Z,10.23
2019-03-29T16:34:29.643Z,12.50
2019-03-29T16:37:00.982Z,10.43
2019-03-29T16:39:32.309Z,10.83
2019-03-29T16:42:03.718Z,10.53
2019-03-29T16:44:34.949Z,10.07
2019-03-29T16:47:06.077Z,10.43
2019-03-29T16:49:37.338Z,10.30
2019-03-29T16:52:08.517Z,9.93
2019-03-29T16:54:39.824Z,9.53
2019-03-29T16:57:11.850Z,11.10
2019-03-29T16:59:44.093Z,10.40
2019-03-29T17:02:15.497Z,10.30
2019-03-29T17:04:47.193Z,11.37
2019-03-29T17:07:18.485Z,12.47
2019-03-29T17:09:49.611Z,10.83
2019-03-29T17:12:21.177Z,11.73
2019-03-29T17:14:52.336Z,11.40
2019-03-29T17:17:23.798Z,11.50
2019-03-29T17:19:55.059Z,10.23
2019-03-29T17:22:26.421Z,12.73
2019-03-29T17:24:58.045Z,10.93
2019-03-29T17:27:29.723Z,10.77
2019-03-29T17:30:01.357Z,10.93
2019-03-29T17:32:34.303Z,11.00
2019-03-29T17:35:06.069Z,11.30
2019-03-29T17:37:37.176Z,11.33
2019-03-29T17:40:10.113Z,13.00
2019-03-29T17:42:41.545Z,12.47
2019-03-29T17:45:12.652Z,12.40
2019-03-29T17:47:43.842Z,11.07
2019-03-29T17:50:15.077Z,13.50
2019-03-29T17:52:47.791Z,13.10
2019-03-29T17:55:18.723Z,12.93
2019-03-29T17:57:50.250Z,13.17
2019-03-29T18:00:23.017Z,12.43
2019-03-29T18:02:54.479Z,12.87
2019-03-29T18:05:25.716Z,13.07
2019-03-29T18:07:57.294Z,14.93
2019-03-29T18:10:29.023Z,13.63
2019-03-29T18:13:00.175Z,14.13
2019-03-29T18:15:31.290Z,17.35
2019-03-29T18:18:02.543Z,15.67
2019-03-29T18:20:34.237Z,13.27
2019-03-29T18:23:05.876Z,13.30
2019-03-29T18:25:38.639Z,16.37
2019-03-29T18:28:11.827Z,14.33
2019-03-29T18:30:44.941Z,15.27
2019-03-29T18:33:16.005Z,14.70
2019-03-29T18:35:47.019Z,14.27
2019-03-29T18:38:19.445Z,16.00
2019-03-29T18:40:50.489Z,15.03
2019-03-29T18:43:21.880Z,15.87
2019-03-29T18:45:53.103Z,16.63
2019-03-29T18:48:25.506Z,16.90
2019-03-29T18:50:56.576Z,15.57
2019-03-29T18:53:27.699Z,16.63
2019-03-29T18:55:58.767Z,17.43
2019-03-29T18:58:31.517Z,17.20
2019-03-29T19:01:03.765Z,17.53
2019-03-29T19:03:35.156Z,16.67
2019-03-29T19:06:06.765Z,16.57
2019-03-29T19:08:37.984Z,16.57
2019-03-29T19:11:09.356Z,15.73
2019-03-29T19:13:40.450Z,189.83
2019-03-29T19:16:11.431Z,35.93
2019-03-29T19:18:42.561Z,19.07
2019-03-29T19:21:13.830Z,15.43
2019-03-29T19:23:46.313Z,16.60
2019-03-29T19:26:19.151Z,16.40
2019-03-29T19:28:51.259Z,17.23
2019-03-29T19:31:23.158Z,17.80
2019-03-29T19:33:54.746Z,18.47
2019-03-29T19:36:26.284Z,16.70
2019-03-29T19:38:57.767Z,16.70
2019-03-29T19:41:30.165Z,16.93
2019-03-29T19:44:01.248Z,17.33
2019-03-29T19:46:32.933Z,17.60
2019-03-29T19:49:04.331Z,17.30
2019-03-29T19:51:35.634Z,15.80
2019-03-29T19:54:07.855Z,17.30
2019-03-29T19:56:39.501Z,16.87
2019-03-29T19:59:10.969Z,16.57
2019-03-29T20:01:43.925Z,16.47
2019-03-29T20:04:15.707Z,15.77
2019-03-29T20:06:47.112Z,16.77
2019-03-29T20:09:19.140Z,17.10
2019-03-29T20:11:50.524Z,17.30
2019-03-29T20:14:21.816Z,17.07
2019-03-29T20:16:55.211Z,16.83
2019-03-29T20:19:26.480Z,17.90
2019-03-29T20:21:59.143Z,17.33
2019-03-29T20:24:30.247Z,17.47
2019-03-29T20:27:01.407Z,16.03
2019-03-29T20:29:32.668Z,16.57
2019-03-29T20:32:03.817Z,19.00
2019-03-29T20:34:35.362Z,17.10
2019-03-29T20:37:08.862Z,16.37
2019-03-29T20:39:39.608Z,17.43
2019-03-29T20:42:11.070Z,16.30
2019-03-29T20:44:42.147Z,16.00
2019-03-29T20:47:13.594Z,17.17
2019-03-29T20:49:45.179Z,17.00
2019-03-29T20:52:16.940Z,17.73
2019-03-29T20:54:49.080Z,16.60
2019-03-29T20:57:20.170Z,18.23
2019-03-29T20:59:51.471Z,16.03
2019-03-29T21:02:23.310Z,17.53
2019-03-29T21:04:54.723Z,17.57
2019-03-29T21:07:25.805Z,18.73
2019-03-29T21:09:57.022Z,17.13
2019-03-29T21:12:28.137Z,235.37
2019-03-29T21:14:59.257Z,29.47
2019-03-29T21:17:30.301Z,16.73
2019-03-29T21:20:01.713Z,16.93
2019-03-29T21:22:33.308Z,17.87
2019-03-29T21:25:04.838Z,17.17
2019-03-29T21:27:35.824Z,19.17
2019-03-29T21:30:10.198Z,18.40
2019-03-29T21:32:41.756Z,21.10
2019-03-29T21:35:13.562Z,19.30
2019-03-29T21:37:44.638Z,18.73
2019-03-29T21:40:16.706Z,18.37
2019-03-29T21:42:47.777Z,20.17
2019-03-29T21:45:28.714Z,19.27
2019-03-29T21:48:04.730Z,20.03
2019-03-29T21:50:24.463Z,18.23
2019-03-29T21:52:55.606Z,18.40
2019-03-29T21:55:26.567Z,19.13
2019-03-29T21:57:57.932Z,18.57
2019-03-29T22:00:28.992Z,19.73
2019-03-29T22:03:00.187Z,17.53
2019-03-29T22:05:31.344Z,17.60
2019-03-29T22:08:02.740Z,18.27
2019-03-29T22:10:33.822Z,19.30
2019-03-29T22:13:04.860Z,18.53
2019-03-29T22:15:36.179Z,18.80
2019-03-29T22:18:07.436Z,17.73
2019-03-29T22:20:39.977Z,17.33
2019-03-29T22:23:11.104Z,18.57
2019-03-29T22:25:42.618Z,17.37
2019-03-29T22:28:14.872Z,19.07
2019-03-29T22:30:46.150Z,16.97
2019-03-29T22:33:17.471Z,18.60
2019-03-29T22:35:49.038Z,17.67
2019-03-29T22:38:20.520Z,16.83
2019-03-29T22:40:51.723Z,18.07
2019-03-29T22:43:22.777Z,17.47
2019-03-29T22:45:53.894Z,18.13
2019-03-29T22:48:26.864Z,17.77
2019-03-29T22:50:58.430Z,17.13
2019-03-29T22:53:29.665Z,18.53
2019-03-29T22:56:01.162Z,16.50
2019-03-29T22:58:32.200Z,17.80
2019-03-29T23:01:05.934Z,18.83
2019-03-29T23:03:37.156Z,18.57
2019-03-29T23:06:08.261Z,16.30
2019-03-29T23:08:39.654Z,17.10
2019-03-29T23:11:11.218Z,16.37
2019-03-29T23:13:42.516Z,18.93
2019-03-29T23:16:13.876Z,19.07
2019-03-29T23:18:44.904Z,18.27
2019-03-29T23:21:16.540Z,19.30
2019-03-29T23:23:48.179Z,17.67
2019-03-29T23:26:19.930Z,17.90
2019-03-29T23:28:51.482Z,17.13
2019-03-29T23:31:22.970Z,20.40
2019-03-29T23:33:54.314Z,18.97
2019-03-29T23:36:25.392Z,16.73
2019-03-29T23:38:56.614Z,19.57
2019-03-29T23:41:27.758Z,21.63
2019-03-29T23:43:58.748Z,19.67
2019-03-29T23:46:29.908Z,20.37
2019-03-29T23:49:00.910Z,22.10
2019-03-29T23:51:31.897Z,22.37
2019-03-29T23:54:04.621Z,22.53
2019-03-29T23:56:35.697Z,21.00
2019-03-29T23:59:06.945Z,22.40
